createdAt,value
2023-01-23T00:01:38.465Z,40.57
2023-01-23T00:04:06.886Z,49.53
2023-01-23T00:06:36.415Z,47.83
2023-01-23T00:09:05.045Z,44.57
2023-01-23T00:11:34.032Z,48.67
2023-01-23T00:14:03.658Z,47.73
2023-01-23T00:16:33.911Z,48.63
2023-01-23T00:19:02.144Z,55.53
2023-01-23T00:21:31.249Z,55.77
2023-01-23T00:24:02.320Z,56.70
2023-01-23T00:26:33.971Z,57.83
2023-01-23T00:29:02.499Z,60.37
2023-01-23T00:31:32.241Z,68.87
2023-01-23T00:34:02.592Z,59.57
2023-01-23T00:36:32.476Z,67.93
2023-01-23T00:39:02.411Z,62.53
2023-01-23T00:41:30.611Z,62.43
2023-01-23T00:43:58.799Z,60.47
2023-01-23T00:46:27.211Z,50.63
2023-01-23T00:48:55.316Z,62.20
2023-01-23T00:51:23.677Z,62.77
2023-01-23T00:53:52.029Z,55.33
2023-01-23T00:56:21.584Z,53.47
2023-01-23T00:58:49.752Z,61.80
2023-01-23T01:01:19.087Z,63.97
2023-01-23T01:03:47.338Z,63.87
2023-01-23T01:06:15.631Z,63.90
2023-01-23T01:08:43.947Z,62.10
2023-01-23T01:11:12.120Z,67.60
2023-01-23T01:13:41.833Z,61.40
2023-01-23T01:16:10.799Z,55.97
2023-01-23T01:18:39.682Z,54.57
2023-01-23T01:21:09.150Z,60.20
2023-01-23T01:23:37.681Z,56.53
2023-01-23T01:26:06.875Z,57.80
2023-01-23T01:28:36.890Z,59.67
2023-01-23T01:31:09.186Z,50.40
2023-01-23T01:33:38.853Z,52.53
2023-01-23T01:36:11.018Z,55.17
2023-01-23T01:38:39.675Z,55.87
2023-01-23T01:41:08.678Z,50.23
2023-01-23T01:43:37.297Z,50.33
2023-01-23T01:46:18.425Z,61.20
2023-01-23T01:48:52.892Z,55.00
2023-01-23T01:51:25.889Z,60.70
2023-01-23T01:54:00.283Z,54.47
2023-01-23T01:56:30.333Z,54.77
2023-01-23T01:58:59.635Z,49.23
2023-01-23T02:01:29.825Z,51.57
2023-01-23T02:03:58.921Z,45.13
2023-01-23T02:06:27.693Z,47.37
2023-01-23T02:09:04.004Z,48.67
2023-01-23T02:11:32.205Z,53.67
2023-01-23T02:14:00.280Z,44.40
2023-01-23T02:16:33.004Z,45.93
2023-01-23T02:19:04.045Z,51.30
2023-01-23T02:21:32.219Z,52.20
2023-01-23T02:24:14.305Z,51.83
2023-01-23T02:26:45.892Z,47.37
2023-01-23T02:29:14.919Z,48.63
2023-01-23T02:31:45.339Z,48.37
2023-01-23T02:34:14.881Z,42.50
2023-01-23T02:36:46.934Z,48.23
2023-01-23T02:39:17.533Z,40.93
2023-01-23T02:41:49.489Z,43.20
2023-01-23T02:44:21.292Z,39.90
2023-01-23T02:46:49.352Z,49.57
2023-01-23T02:49:17.415Z,56.13
2023-01-23T02:51:45.580Z,39.60
2023-01-23T02:54:13.662Z,41.60
2023-01-23T02:56:42.699Z,44.20
2023-01-23T02:59:30.032Z,44.23
2023-01-23T03:01:58.952Z,42.23
2023-01-23T03:04:27.385Z,49.43
2023-01-23T03:06:55.491Z,37.90
2023-01-23T03:09:23.855Z,36.27
2023-01-23T03:11:52.290Z,39.60
2023-01-23T03:14:23.420Z,38.97
2023-01-23T03:16:53.800Z,35.97
2023-01-23T03:19:24.398Z,38.97
2023-01-23T03:21:52.891Z,39.10
2023-01-23T03:24:21.870Z,42.67
2023-01-23T03:26:51.139Z,32.97
2023-01-23T03:29:36.330Z,37.37
2023-01-23T03:32:04.802Z,39.93
2023-01-23T03:34:32.933Z,42.87
2023-01-23T03:37:01.561Z,50.97
2023-01-23T03:39:46.992Z,47.20
2023-01-23T03:42:15.422Z,43.63
2023-01-23T03:44:45.130Z,45.83
2023-01-23T03:47:13.262Z,54.87
2023-01-23T03:49:41.989Z,55.23
2023-01-23T03:52:10.333Z,47.70
2023-01-23T03:54:38.453Z,47.07
2023-01-23T03:57:06.517Z,52.57
2023-01-23T03:59:34.811Z,44.60
2023-01-23T04:02:05.433Z,48.23
2023-01-23T04:04:34.677Z,54.60
2023-01-23T04:07:04.842Z,54.80
2023-01-23T04:09:32.911Z,48.53
2023-01-23T04:12:01.856Z,50.17
2023-01-23T04:14:35.458Z,49.97
2023-01-23T04:17:05.737Z,51.27
2023-01-23T04:19:34.610Z,50.00
2023-01-23T04:22:03.041Z,50.13
2023-01-23T04:24:31.115Z,53.60
2023-01-23T04:26:59.212Z,48.70
2023-01-23T04:29:27.306Z,59.70
2023-01-23T04:31:55.320Z,55.47
2023-01-23T04:34:24.872Z,53.57
2023-01-23T04:36:52.942Z,72.77
2023-01-23T04:39:21.073Z,48.23
2023-01-23T04:41:49.105Z,53.30
2023-01-23T04:44:23.319Z,51.23
2023-01-23T04:46:54.120Z,47.07
2023-01-23T04:49:22.731Z,43.73
2023-01-23T04:51:52.728Z,41.23
2023-01-23T04:54:22.231Z,47.63
2023-01-23T04:56:50.449Z,41.57
2023-01-23T04:59:18.663Z,39.70
2023-01-23T05:01:46.902Z,45.53
2023-01-23T05:04:15.026Z,51.30
2023-01-23T05:06:43.080Z,53.83
2023-01-23T05:09:13.821Z,51.13
2023-01-23T05:11:42.260Z,44.27
2023-01-23T05:14:10.550Z,45.13
2023-01-23T05:16:38.754Z,47.43
2023-01-23T05:19:06.877Z,42.33
2023-01-23T05:21:34.993Z,48.03
2023-01-23T05:24:21.526Z,39.13
2023-01-23T05:26:51.093Z,39.40
2023-01-23T05:29:19.232Z,42.37
2023-01-23T05:31:47.383Z,43.77
2023-01-23T05:34:15.398Z,43.47
2023-01-23T05:36:43.591Z,44.43
2023-01-23T05:39:11.738Z,43.53
2023-01-23T05:41:39.926Z,46.10
2023-01-23T05:44:09.426Z,45.83
2023-01-23T05:46:37.649Z,41.47
2023-01-23T05:49:05.981Z,42.07
2023-01-23T05:51:34.159Z,41.17
2023-01-23T05:54:03.128Z,39.00
2023-01-23T05:56:31.658Z,47.10
2023-01-23T05:58:59.701Z,39.50
2023-01-23T06:01:29.190Z,43.10
2023-01-23T06:03:57.416Z,38.37
2023-01-23T06:06:25.663Z,37.27
2023-01-23T06:08:53.691Z,38.00
2023-01-23T06:11:22.043Z,37.87
2023-01-23T06:13:50.049Z,35.10
2023-01-23T06:16:18.169Z,40.87
2023-01-23T06:18:47.576Z,36.00
2023-01-23T06:21:18.395Z,41.37
2023-01-23T06:23:47.109Z,39.63
2023-01-23T06:26:15.747Z,38.07
2023-01-23T06:28:43.852Z,38.53
2023-01-23T06:31:12.002Z,35.43
2023-01-23T06:33:40.481Z,37.07
2023-01-23T06:36:11.231Z,33.13
2023-01-23T06:38:39.526Z,34.07
2023-01-23T06:41:09.361Z,34.67
2023-01-23T06:43:37.443Z,33.20
2023-01-23T06:46:05.820Z,35.97
2023-01-23T06:48:33.898Z,42.23
2023-01-23T06:51:02.306Z,35.30
2023-01-23T06:53:32.476Z,33.43
2023-01-23T06:56:02.049Z,38.30
2023-01-23T06:58:30.593Z,42.00
2023-01-23T07:00:59.042Z,36.63
2023-01-23T07:03:27.132Z,37.07
2023-01-23T07:05:55.234Z,36.27
2023-01-23T07:08:23.257Z,32.80
2023-01-23T07:10:52.768Z,36.90
2023-01-23T07:13:21.079Z,32.47
2023-01-23T07:15:49.275Z,27.90
2023-01-23T07:18:17.525Z,30.33
2023-01-23T07:20:45.993Z,32.13
2023-01-23T07:23:14.634Z,32.17
2023-01-23T07:25:43.290Z,32.87
2023-01-23T07:28:12.834Z,35.93
2023-01-23T07:30:41.867Z,29.50
2023-01-23T07:33:10.104Z,30.90
2023-01-23T07:35:40.641Z,27.27
2023-01-23T07:38:08.751Z,29.27
2023-01-23T07:40:39.100Z,31.77
2023-01-23T07:43:07.347Z,26.73
2023-01-23T07:45:37.972Z,24.50
2023-01-23T07:48:06.349Z,33.90
2023-01-23T07:50:35.281Z,29.27
2023-01-23T07:53:04.316Z,29.10
2023-01-23T07:55:32.860Z,33.43
2023-01-23T07:58:01.106Z,27.37
2023-01-23T08:00:30.417Z,28.10
2023-01-23T08:03:00.178Z,32.37
2023-01-23T08:05:28.461Z,31.33
2023-01-23T08:08:12.204Z,25.70
2023-01-23T08:10:41.320Z,31.10
2023-01-23T08:13:09.495Z,32.53
2023-01-23T08:15:40.549Z,33.13
2023-01-23T08:18:10.133Z,32.20
2023-01-23T08:20:38.238Z,30.90
2023-01-23T08:23:06.455Z,30.93
2023-01-23T08:25:35.075Z,27.03
2023-01-23T08:28:03.210Z,32.90
2023-01-23T08:30:31.326Z,30.80
2023-01-23T08:33:00.138Z,33.50
2023-01-23T08:35:29.730Z,35.20
2023-01-23T08:37:57.862Z,31.63
2023-01-23T08:40:26.084Z,31.00
2023-01-23T08:42:57.229Z,28.43
2023-01-23T08:45:27.217Z,32.00
2023-01-23T08:47:55.515Z,33.73
2023-01-23T08:50:24.267Z,33.20
2023-01-23T08:52:55.928Z,31.67
2023-01-23T08:55:24.547Z,32.70
2023-01-23T08:57:52.975Z,30.17
2023-01-23T09:00:22.867Z,33.50
2023-01-23T09:02:51.729Z,33.40
2023-01-23T09:05:20.531Z,29.23
2023-01-23T09:07:49.046Z,29.63
2023-01-23T09:10:19.149Z,33.23
2023-01-23T09:12:48.897Z,28.93
2023-01-23T09:15:18.482Z,31.83
2023-01-23T09:17:46.953Z,30.13
2023-01-23T09:20:15.627Z,29.90
2023-01-23T09:22:43.907Z,33.53
2023-01-23T09:25:12.854Z,31.77
2023-01-23T09:27:42.573Z,34.33
2023-01-23T09:30:12.241Z,26.93
2023-01-23T09:32:40.388Z,29.03
2023-01-23T09:35:09.204Z,31.57
2023-01-23T09:37:51.208Z,28.73
2023-01-23T09:40:23.276Z,32.90
2023-01-23T09:42:55.101Z,39.43
2023-01-23T09:45:26.973Z,26.60
2023-01-23T09:48:02.244Z,35.40
2023-01-23T09:50:35.479Z,29.03
2023-01-23T09:53:14.091Z,31.87
2023-01-23T09:55:46.197Z,26.47
2023-01-23T09:58:23.740Z,27.50
2023-01-23T10:00:52.900Z,32.93
2023-01-23T10:03:21.491Z,28.73
2023-01-23T10:06:02.540Z,28.37
2023-01-23T10:08:44.202Z,29.13
2023-01-23T10:11:22.314Z,26.77
2023-01-23T10:14:17.542Z,29.03
2023-01-23T10:17:04.215Z,31.73
2023-01-23T10:19:49.765Z,34.03
2023-01-23T10:22:34.763Z,28.50
2023-01-23T10:25:10.457Z,25.83
2023-01-23T10:27:44.059Z,28.07
2023-01-23T10:30:26.992Z,23.07
2023-01-23T10:32:59.821Z,29.20
2023-01-23T10:35:36.175Z,28.00
2023-01-23T10:38:13.751Z,25.23
2023-01-23T10:40:59.740Z,27.23
2023-01-23T10:43:28.395Z,23.57
2023-01-23T10:45:58.096Z,29.47
2023-01-23T10:48:41.787Z,25.13
2023-01-23T10:51:47.052Z,23.43
2023-01-23T10:54:31.203Z,25.53
2023-01-23T10:57:02.106Z,30.80
2023-01-23T10:59:34.535Z,27.63
2023-01-23T11:02:22.066Z,32.13
2023-01-23T11:04:52.648Z,28.20
2023-01-23T11:07:24.039Z,31.10
2023-01-23T11:09:56.055Z,28.73
2023-01-23T11:12:25.681Z,31.10
2023-01-23T11:15:13.765Z,27.57
2023-01-23T11:17:44.319Z,35.37
2023-01-23T11:20:23.529Z,33.47
2023-01-23T11:23:06.229Z,34.10
2023-01-23T11:25:37.494Z,32.50
2023-01-23T11:28:23.695Z,31.37
2023-01-23T11:31:12.382Z,30.67
2023-01-23T11:33:53.383Z,31.73
2023-01-23T11:36:36.070Z,31.37
2023-01-23T11:39:13.737Z,29.47
2023-01-23T11:41:42.165Z,35.87
2023-01-23T11:44:18.704Z,24.53
2023-01-23T11:47:09.155Z,29.70
2023-01-23T11:49:59.399Z,29.33
2023-01-23T11:52:40.078Z,26.50
2023-01-23T11:55:32.724Z,29.87
2023-01-23T11:58:14.464Z,30.23
2023-01-23T12:00:48.354Z,26.37
2023-01-23T12:04:04.283Z,26.90
2023-01-23T12:06:52.551Z,26.67
2023-01-23T12:09:22.755Z,33.10
2023-01-23T12:12:04.955Z,26.07
2023-01-23T12:14:43.970Z,22.03
2023-01-23T12:17:25.159Z,24.03
2023-01-23T12:20:07.191Z,29.03
2023-01-23T12:22:53.847Z,26.07
2023-01-23T12:25:31.193Z,26.10
2023-01-23T12:28:06.922Z,27.23
2023-01-23T12:31:05.722Z,24.67
2023-01-23T12:33:51.307Z,32.27
2023-01-23T12:36:40.322Z,30.33
2023-01-23T12:39:33.471Z,28.77
2023-01-23T12:42:04.549Z,30.67
2023-01-23T12:44:37.297Z,30.97
2023-01-23T12:47:11.813Z,26.10
2023-01-23T12:49:44.547Z,28.87
2023-01-23T12:52:17.272Z,33.60
2023-01-23T12:54:52.230Z,30.37
2023-01-23T12:57:46.211Z,28.87
2023-01-23T13:00:43.859Z,36.30
2023-01-23T13:03:37.280Z,30.87
2023-01-23T13:06:26.303Z,30.73
2023-01-23T13:09:12.571Z,34.90
2023-01-23T13:11:54.570Z,30.97
2023-01-23T13:14:31.348Z,31.67
2023-01-23T13:17:03.682Z,32.53
2023-01-23T13:19:50.448Z,33.30
2023-01-23T13:22:30.577Z,32.20
2023-01-23T13:25:14.198Z,32.20
2023-01-23T13:27:47.282Z,31.73
2023-01-23T13:30:44.000Z,33.00
2023-01-23T13:33:51.713Z,31.30
2023-01-23T13:36:29.367Z,31.67
2023-01-23T13:39:22.749Z,32.20
2023-01-23T13:41:54.023Z,36.30
2023-01-23T13:44:40.286Z,34.90
2023-01-23T14:22:09.461Z,31.80
2023-01-23T14:24:45.279Z,27.37
2023-01-23T14:27:22.021Z,30.13
2023-01-23T14:29:59.454Z,27.53
2023-01-23T14:32:32.062Z,28.03
2023-01-23T14:35:00.351Z,27.60
2023-01-23T14:37:29.888Z,25.10
2023-01-23T14:40:09.719Z,29.30
2023-01-23T14:42:40.996Z,26.03
2023-01-23T14:45:14.010Z,23.53
2023-01-23T14:47:48.916Z,27.10
2023-01-23T14:50:24.507Z,31.03
2023-01-23T14:52:59.510Z,24.13
2023-01-23T14:55:37.974Z,25.10
2023-01-23T14:58:07.629Z,27.90
2023-01-23T15:00:37.401Z,31.10
2023-01-23T15:03:08.580Z,29.90
2023-01-23T15:05:39.766Z,19.97
2023-01-23T15:08:23.567Z,30.53
2023-01-23T15:10:54.130Z,28.67
2023-01-23T15:13:24.873Z,28.53
2023-01-23T15:15:56.950Z,27.27
2023-01-23T15:18:29.618Z,26.03
2023-01-23T15:20:59.600Z,31.07
2023-01-23T15:23:32.363Z,31.23
2023-01-23T15:26:24.700Z,29.33
2023-01-23T15:28:54.775Z,22.83
2023-01-23T15:31:27.603Z,25.60
2023-01-23T15:33:58.825Z,34.13
2023-01-23T15:36:29.392Z,30.73
2023-01-23T15:39:00.172Z,32.80
2023-01-23T15:41:41.998Z,27.60
2023-01-23T15:44:14.947Z,31.13
2023-01-23T15:46:43.566Z,27.47
2023-01-23T15:49:24.362Z,31.83
2023-01-23T15:51:53.411Z,30.17
2023-01-23T15:54:26.048Z,31.07
2023-01-23T15:57:06.646Z,27.03
2023-01-23T15:59:36.142Z,26.77
2023-01-23T16:02:04.745Z,26.87
2023-01-23T16:04:35.018Z,28.80
2023-01-23T16:07:07.115Z,28.93
2023-01-23T16:09:38.091Z,28.57
2023-01-23T16:12:09.468Z,28.03
2023-01-23T16:14:38.014Z,30.07
2023-01-23T16:17:16.390Z,33.03
2023-01-23T16:19:46.940Z,30.13
2023-01-23T16:22:19.628Z,30.10
2023-01-23T16:24:47.801Z,27.20
2023-01-23T16:27:19.399Z,30.23
2023-01-23T16:29:49.737Z,33.30
2023-01-23T16:32:17.971Z,30.43
2023-01-23T16:34:47.626Z,28.63
2023-01-23T16:37:18.025Z,29.23
2023-01-23T16:39:47.752Z,33.47
2023-01-23T16:42:21.782Z,32.13
2023-01-23T16:44:50.270Z,28.77
2023-01-23T16:47:18.451Z,31.67
2023-01-23T16:49:52.919Z,30.27
2023-01-23T16:52:23.498Z,32.80
2023-01-23T16:54:54.580Z,26.60
2023-01-23T16:57:23.171Z,31.43
2023-01-23T16:59:52.800Z,32.47
2023-01-23T17:02:24.260Z,32.27
2023-01-23T17:04:54.513Z,29.70
2023-01-23T17:07:22.717Z,32.63
2023-01-23T17:09:51.851Z,28.87
2023-01-23T17:12:24.259Z,28.10
2023-01-23T17:14:53.036Z,27.70
2023-01-23T17:17:29.405Z,31.93
2023-01-23T17:20:01.245Z,27.43
2023-01-23T17:22:31.551Z,26.70
2023-01-23T17:24:59.829Z,28.27
2023-01-23T17:27:28.688Z,27.50
2023-01-23T17:29:56.926Z,32.63
2023-01-23T17:32:30.714Z,29.00
2023-01-23T17:35:03.140Z,25.13
2023-01-23T17:37:31.929Z,27.10
2023-01-23T17:40:00.141Z,29.50
2023-01-23T17:42:28.380Z,30.93
2023-01-23T17:44:56.644Z,41.30
2023-01-23T17:47:25.683Z,36.80
2023-01-23T17:49:55.581Z,29.77
2023-01-23T17:52:26.765Z,30.10
2023-01-23T17:54:54.857Z,30.93
2023-01-23T17:57:23.100Z,27.20
2023-01-23T17:59:51.182Z,28.87
2023-01-23T18:02:28.815Z,34.63
2023-01-23T18:04:57.381Z,36.57
2023-01-23T18:07:28.335Z,29.93
2023-01-23T18:09:56.536Z,34.50
2023-01-23T18:12:31.973Z,29.93
2023-01-23T18:15:10.453Z,28.50
2023-01-23T18:18:36.054Z,30.93
2023-01-23T18:21:39.927Z,31.03
2023-01-23T18:28:14.853Z,30.93
2023-01-23T18:30:52.339Z,31.90
2023-01-23T18:33:35.805Z,30.83
2023-01-23T18:36:35.513Z,31.60
2023-01-23T18:39:32.301Z,33.47
2023-01-23T18:42:12.747Z,31.00
2023-01-23T18:44:48.218Z,33.57
2023-01-23T18:47:17.135Z,27.30
2023-01-23T18:49:46.148Z,26.80
2023-01-23T18:52:18.462Z,31.07
2023-01-23T18:54:54.498Z,31.20
2023-01-23T18:57:50.806Z,32.97
2023-01-23T19:00:26.994Z,36.43
2023-01-23T19:02:59.221Z,30.07
2023-01-23T19:05:30.310Z,29.73
2023-01-23T19:08:00.018Z,27.07
2023-01-23T19:10:32.487Z,28.03
2023-01-23T19:13:19.060Z,32.73
2023-01-23T19:15:57.332Z,26.47
2023-01-23T19:18:47.499Z,31.97
2023-01-23T19:21:20.450Z,31.00
2023-01-23T19:23:56.517Z,32.10
2023-01-23T19:26:28.391Z,29.77
2023-01-23T19:28:59.697Z,35.03
2023-01-23T19:31:33.041Z,26.07
2023-01-23T19:34:02.151Z,34.57
2023-01-23T19:36:36.178Z,30.73
2023-01-23T19:39:07.014Z,35.67
2023-01-23T19:41:42.677Z,30.97
2023-01-23T19:44:14.294Z,33.13
2023-01-23T19:46:46.161Z,32.27
2023-01-23T19:49:15.710Z,39.43
2023-01-23T19:51:44.483Z,29.50
2023-01-23T19:54:14.941Z,27.57
2023-01-23T19:56:43.600Z,29.67
2023-01-23T19:59:19.789Z,29.43
2023-01-23T20:01:52.514Z,29.07
2023-01-23T20:04:23.311Z,28.03
2023-01-23T20:06:52.256Z,32.33
2023-01-23T20:09:20.935Z,31.83
2023-01-23T20:11:49.576Z,29.50
2023-01-23T20:14:18.221Z,32.57
2023-01-23T20:16:46.695Z,30.20
2023-01-23T20:19:16.924Z,33.27
2023-01-23T20:21:47.664Z,32.23
2023-01-23T20:24:16.877Z,27.57
2023-01-23T20:26:46.448Z,30.53
2023-01-23T20:29:14.821Z,28.43
2023-01-23T20:31:43.407Z,27.87
2023-01-23T20:34:14.734Z,31.40
2023-01-23T20:36:45.969Z,27.57
2023-01-23T20:39:15.386Z,27.53
2023-01-23T20:41:43.441Z,26.87
2023-01-23T20:44:12.756Z,29.77
2023-01-23T20:46:41.419Z,29.40
2023-01-23T20:49:12.128Z,31.67
2023-01-23T20:51:41.419Z,25.13
2023-01-23T20:54:10.343Z,32.07
2023-01-23T20:56:39.564Z,26.03
2023-01-23T20:59:18.909Z,27.53
2023-01-23T21:02:04.662Z,26.37
2023-01-23T21:04:35.328Z,23.67
2023-01-23T21:07:05.248Z,29.47
2023-01-23T21:09:35.093Z,26.40
2023-01-23T21:12:06.624Z,24.87
2023-01-23T21:14:35.671Z,25.47
2023-01-23T21:17:05.881Z,30.13
2023-01-23T21:19:34.973Z,26.53
2023-01-23T21:22:03.517Z,26.77
2023-01-23T21:24:34.420Z,22.27
2023-01-23T21:27:06.103Z,27.87
2023-01-23T21:29:35.303Z,21.63
2023-01-23T21:32:03.586Z,23.07
2023-01-23T21:34:32.300Z,22.57
2023-01-23T21:37:00.884Z,29.07
2023-01-23T21:39:29.069Z,25.60
2023-01-23T21:41:57.219Z,26.10
2023-01-23T21:44:26.825Z,23.13
2023-01-23T21:46:54.967Z,22.63
2023-01-23T21:49:23.122Z,23.87
2023-01-23T21:51:51.133Z,25.40
2023-01-23T21:54:19.246Z,23.30
2023-01-23T21:56:47.285Z,26.03
2023-01-23T21:59:20.162Z,27.40
2023-01-23T22:01:48.828Z,25.37
2023-01-23T22:04:18.649Z,25.17
2023-01-23T22:06:47.341Z,24.30
2023-01-23T22:09:17.481Z,27.00
2023-01-23T22:11:46.040Z,22.93
2023-01-23T22:14:14.461Z,26.70
2023-01-23T22:16:49.103Z,23.57
2023-01-23T22:19:24.212Z,22.53
2023-01-23T22:21:53.793Z,23.77
2023-01-23T22:24:22.119Z,27.47
2023-01-23T22:26:50.498Z,24.50
2023-01-23T22:29:18.902Z,27.77
2023-01-23T22:31:47.132Z,26.30
2023-01-23T22:34:15.435Z,25.53
2023-01-23T22:36:45.249Z,27.60
2023-01-23T22:39:16.187Z,25.80
2023-01-23T22:41:46.402Z,27.03
2023-01-23T22:44:14.776Z,23.87
2023-01-23T22:46:43.133Z,23.87
2023-01-23T22:49:11.562Z,23.30
2023-01-23T22:51:39.730Z,26.03
2023-01-23T22:54:09.334Z,22.50
2023-01-23T22:56:37.748Z,31.23
2023-01-23T22:59:06.262Z,27.30
2023-01-23T23:01:34.514Z,25.23
2023-01-23T23:04:02.725Z,25.43
2023-01-23T23:06:31.023Z,25.87
2023-01-23T23:08:59.116Z,25.00
2023-01-23T23:11:29.558Z,28.40
2023-01-23T23:13:57.908Z,26.77
2023-01-23T23:16:29.038Z,27.93
2023-01-23T23:19:00.202Z,26.77
2023-01-23T23:21:31.699Z,27.13
2023-01-23T23:24:01.939Z,31.00
2023-01-23T23:26:32.116Z,28.67
2023-01-23T23:29:00.928Z,31.83
2023-01-23T23:31:29.393Z,33.10
2023-01-23T23:33:57.623Z,31.03
2023-01-23T23:36:25.762Z,30.20
2023-01-23T23:38:53.874Z,29.67
2023-01-23T23:41:22.104Z,36.67
2023-01-23T23:43:51.590Z,34.50
2023-01-23T23:46:20.292Z,31.97
2023-01-23T23:48:48.353Z,37.63
2023-01-23T23:51:19.018Z,31.63
2023-01-23T23:53:47.709Z,36.23
2023-01-23T23:56:21.425Z,36.00
2023-01-23T23:58:51.573Z,37.53
